createdAt,value
2023-04-07T00:08:05.496Z,57.5
2023-04-07T00:23:14.995Z,57.5
2023-04-07T00:38:24.318Z,57.7
2023-04-07T00:53:34.270Z,57.7
2023-04-07T01:08:43.711Z,57.7
2023-04-07T01:23:54.669Z,57.7
2023-04-07T01:39:04.211Z,57.8
2023-04-07T01:54:13.699Z,58
2023-04-07T02:09:23.012Z,58
2023-04-07T02:24:32.950Z,58.1
2023-04-07T02:39:42.313Z,58.2
2023-04-07T02:54:52.660Z,58.3
2023-04-07T03:10:02.638Z,58.4
2023-04-07T03:25:12.890Z,58.5
2023-04-07T03:40:22.149Z,58.6
2023-04-07T03:55:31.870Z,58.7
2023-04-07T04:10:41.260Z,59.2
2023-04-07T04:25:50.412Z,58.9
2023-04-07T04:40:59.893Z,59
2023-04-07T04:56:09.609Z,59
2023-04-07T05:11:19.503Z,59
2023-04-07T05:26:29.873Z,58.9
2023-04-07T05:41:39.768Z,58.9
2023-04-07T05:56:50.398Z,58.8
2023-04-07T06:12:00.583Z,58.6
2023-04-07T06:27:10.378Z,58.8
2023-04-07T06:42:20.104Z,58.2
2023-04-07T06:57:28.677Z,58.1
2023-04-07T07:12:38.186Z,57.9
2023-04-07T07:27:49.436Z,57.8
2023-04-07T07:42:59.011Z,57.7
2023-04-07T07:58:08.839Z,57.5
2023-04-07T08:13:18.743Z,57.2
2023-04-07T08:28:29.793Z,57
2023-04-07T08:43:39.118Z,56.7
2023-04-07T08:58:49.377Z,56.6
2023-04-07T09:13:59.442Z,56.4
2023-04-07T09:29:08.962Z,56.3
2023-04-07T09:44:18.865Z,56.1
2023-04-07T09:59:28.879Z,56
2023-04-07T10:14:40.900Z,55.8
2023-04-07T10:29:50.423Z,55.2
2023-04-07T10:45:00.752Z,55.5
2023-04-07T11:00:10.162Z,55.4
2023-04-07T11:15:19.920Z,55.3
2023-04-07T11:30:29.468Z,55
2023-04-07T11:45:38.905Z,54.9
2023-04-07T12:00:49.826Z,54.3
2023-04-07T12:16:00.770Z,52.3
2023-04-07T12:31:11.286Z,51.5
2023-04-07T12:46:21.628Z,51
2023-04-07T13:01:32.311Z,51.8
2023-04-07T13:16:43.038Z,50.5
2023-04-07T13:31:53.809Z,50
2023-04-07T13:47:04.769Z,49.6
2023-04-07T14:02:15.406Z,50
2023-04-07T14:17:25.747Z,50
2023-04-07T14:32:36.000Z,48.9
2023-04-07T14:47:50.311Z,47.8
2023-04-07T15:03:01.698Z,47.8
2023-04-07T15:18:11.932Z,47.7
2023-04-07T15:33:22.318Z,47.3
2023-04-07T15:48:34.866Z,45.8
2023-04-07T16:03:45.647Z,43.6
2023-04-07T16:18:53.404Z,45.1
2023-04-07T16:34:04.072Z,40.3
2023-04-07T16:49:12.982Z,46.6
2023-04-07T17:04:19.570Z,51.3
2023-04-07T17:19:27.902Z,52.2
2023-04-07T17:34:36.336Z,52.3
2023-04-07T17:49:45.436Z,52.6
2023-04-07T18:04:55.414Z,52.7
2023-04-07T18:20:05.064Z,52.9
2023-04-07T18:35:14.015Z,53.2
2023-04-07T18:50:23.770Z,53.5
2023-04-07T19:05:33.681Z,53.6
2023-04-07T19:20:43.024Z,53.6
2023-04-07T19:35:52.732Z,53.8
2023-04-07T19:51:01.794Z,54
2023-04-07T20:06:11.232Z,53.8
2023-04-07T20:21:21.580Z,54
2023-04-07T20:36:31.105Z,54.5
2023-04-07T20:51:40.808Z,54.6
2023-04-07T21:06:50.004Z,54.9
2023-04-07T21:21:59.672Z,55.1
2023-04-07T21:37:09.177Z,55.4
2023-04-07T21:52:19.926Z,55.5
2023-04-07T22:07:29.450Z,55.7
2023-04-07T22:22:39.323Z,55.9
2023-04-07T22:37:49.616Z,55.9
2023-04-07T22:52:59.134Z,56.1
2023-04-07T23:08:08.865Z,55.9
2023-04-07T23:23:18.701Z,56.4
2023-04-07T23:38:28.318Z,56.6
2023-04-07T23:53:37.769Z,56.7
